Time;durP1;ratioP1;P1;durP2;ratioP2;P2;SDS_P1;SDS_P2;PMS_P1;PMS_P2;Temp;Humidity;BMP_temperature;BMP_pressure;BME280_temperature;BME280_humidity;BME280_pressure;Samples;Min_cycle;Max_cycle;Signal;HPM_P1;HPM_P2
2023/01/28 00:00:35;;;;;;;7.07;6.63;;;;;;;;;;4891969;28;98283;-73
2023/01/28 00:03:02;;;;;;;7.80;7.20;;;;;;;;;;4889376;28;100393;-73
2023/01/28 00:05:31;;;;;;;7.82;7.28;;;;;;;;;;4889343;28;98294;-73
2023/01/28 00:07:57;;;;;;;7.90;7.40;;;;;;;;;;4888350;28;99608;-73
2023/01/28 00:10:24;;;;;;;7.47;6.88;;;;;;;;;;4888374;28;99870;-72
2023/01/28 00:12:50;;;;;;;7.55;7.05;;;;;;;;;;4891295;28;98311;-72
2023/01/28 00:15:17;;;;;;;8.15;7.55;;;;;;;;;;4892277;28;100167;-72
2023/01/28 00:17:43;;;;;;;8.88;8.18;;;;;;;;;;4892469;28;98994;-73
2023/01/28 00:20:10;;;;;;;7.72;7.20;;;;;;;;;;4895740;28;98728;-73
2023/01/28 00:22:36;;;;;;;8.75;8.05;;;;;;;;;;4891050;28;99875;-73
2023/01/28 00:25:03;;;;;;;7.93;7.25;;;;;;;;;;4892323;28;98860;-72
2023/01/28 00:27:29;;;;;;;9.23;7.60;;;;;;;;;;4892584;28;98607;-73
2023/01/28 00:29:56;;;;;;;9.20;8.50;;;;;;;;;;4891215;28;100019;-72
2023/01/28 00:32:23;;;;;;;8.85;8.05;;;;;;;;;;4892283;28;98327;-73
2023/01/28 00:34:51;;;;;;;8.63;7.88;;;;;;;;;;4892488;28;99436;-73
2023/01/28 00:37:18;;;;;;;8.93;8.23;;;;;;;;;;4891839;28;98854;-73
2023/01/28 00:39:44;;;;;;;8.45;7.85;;;;;;;;;;4893364;28;98291;-72
2023/01/28 00:42:11;;;;;;;9.15;8.45;;;;;;;;;;4895604;28;98336;-73
2023/01/28 00:44:37;;;;;;;9.25;8.55;;;;;;;;;;4906648;28;98354;-74
2023/01/28 00:47:04;;;;;;;8.68;7.72;;;;;;;;;;4889229;28;100383;-72
2023/01/28 00:49:30;;;;;;;9.38;8.68;;;;;;;;;;4891174;28;99503;-72
2023/01/28 00:51:57;;;;;;;8.75;8.05;;;;;;;;;;4890736;28;98381;-72
2023/01/28 00:54:23;;;;;;;7.78;7.18;;;;;;;;;;4892497;28;98512;-73
2023/01/28 00:56:52;;;;;;;9.50;8.75;;;;;;;;;;4890686;28;100106;-73
2023/01/28 00:59:19;;;;;;;8.05;7.45;;;;;;;;;;4892698;28;98140;-73
2023/01/28 01:01:47;;;;;;;8.38;7.68;;;;;;;;;;4892640;28;99311;-72
2023/01/28 01:04:25;;;;;;;9.05;8.35;;;;;;;;;;4894612;28;100218;-72
2023/01/28 01:06:52;;;;;;;8.30;7.55;;;;;;;;;;4890862;28;99454;-73
2023/01/28 01:09:19;;;;;;;8.60;7.75;;;;;;;;;;4892046;28;99821;-73
2023/01/28 01:11:45;;;;;;;9.82;9.02;;;;;;;;;;4890893;28;98206;-72
2023/01/28 01:14:12;;;;;;;8.20;7.60;;;;;;;;;;4905590;28;100691;-73
2023/01/28 01:16:38;;;;;;;8.32;7.60;;;;;;;;;;4891496;28;99947;-73
2023/01/28 01:19:06;;;;;;;8.55;7.93;;;;;;;;;;4890922;28;98620;-73
2023/01/28 01:21:32;;;;;;;8.48;7.78;;;;;;;;;;4891772;28;99332;-73
2023/01/28 01:23:59;;;;;;;8.63;7.93;;;;;;;;;;4905267;28;101800;-72
2023/01/28 01:26:26;;;;;;;7.50;6.90;;;;;;;;;;4894374;28;98246;-73
2023/01/28 01:28:52;;;;;;;7.28;6.78;;;;;;;;;;4891354;28;98801;-72
2023/01/28 01:31:20;;;;;;;8.50;7.90;;;;;;;;;;4891533;28;98267;-72
2023/01/28 01:33:47;;;;;;;8.90;8.10;;;;;;;;;;4890604;28;98619;-73
2023/01/28 01:36:16;;;;;;;9.35;8.52;;;;;;;;;;4888929;28;101530;-72
2023/01/28 01:38:43;;;;;;;8.70;8.00;;;;;;;;;;4889224;28;98834;-72
2023/01/28 01:41:20;;;;;;;9.77;8.88;;;;;;;;;;4890436;28;98423;-70
2023/01/28 01:43:48;;;;;;;7.82;7.22;;;;;;;;;;4905517;28;101253;-73
2023/01/28 01:46:20;;;;;;;7.72;7.22;;;;;;;;;;4890582;28;98437;-72
2023/01/28 01:48:47;;;;;;;8.82;8.10;;;;;;;;;;4894766;28;99211;-71
2023/01/28 01:51:16;;;;;;;8.13;7.43;;;;;;;;;;4891130;28;98345;-72
2023/01/28 01:53:44;;;;;;;9.13;8.35;;;;;;;;;;4889433;28;101110;-72
2023/01/28 01:56:13;;;;;;;8.98;8.18;;;;;;;;;;4889134;28;99203;-72
2023/01/28 01:58:42;;;;;;;9.27;8.55;;;;;;;;;;4905480;28;98090;-72
2023/01/28 02:01:10;;;;;;;9.23;8.43;;;;;;;;;;4903471;28;101444;-72
2023/01/28 02:03:42;;;;;;;9.55;8.75;;;;;;;;;;4890882;28;98989;-72
2023/01/28 02:06:09;;;;;;;9.25;8.55;;;;;;;;;;4905207;28;98273;-73
2023/01/28 02:08:35;;;;;;;8.80;8.10;;;;;;;;;;4905008;28;101078;-72
2023/01/28 02:11:03;;;;;;;9.13;8.43;;;;;;;;;;4892601;28;99384;-72
2023/01/28 02:13:32;;;;;;;8.10;7.40;;;;;;;;;;4905367;28;99401;-73
2023/01/28 02:15:59;;;;;;;8.75;8.13;;;;;;;;;;4907474;28;101746;-73
2023/01/28 02:18:26;;;;;;;8.57;7.88;;;;;;;;;;4910243;28;98231;-72
2023/01/28 02:21:08;;;;;;;9.93;9.13;;;;;;;;;;4909184;28;98240;-72
2023/01/28 02:23:43;;;;;;;9.32;8.55;;;;;;;;;;4924467;28;101083;-72
2023/01/28 02:26:21;;;;;;;8.95;8.15;;;;;;;;;;4907849;28;99018;-73
2023/01/28 02:28:53;;;;;;;9.38;8.68;;;;;;;;;;4924433;28;99061;-72
2023/01/28 02:31:23;;;;;;;10.03;9.27;;;;;;;;;;4897599;28;98934;-73
2023/01/28 02:34:01;;;;;;;9.93;9.07;;;;;;;;;;4890988;28;98386;-73
2023/01/28 02:36:33;;;;;;;9.70;8.88;;;;;;;;;;4903903;28;101290;-73
2023/01/28 02:39:04;;;;;;;9.35;8.63;;;;;;;;;;4905046;28;98474;-73
2023/01/28 02:41:35;;;;;;;10.18;9.20;;;;;;;;;;4905332;28;99461;-72
2023/01/28 02:44:02;;;;;;;10.02;9.05;;;;;;;;;;4889718;28;99937;-72
2023/01/28 02:49:15;;;;;;;10.25;9.40;;;;;;;;;;4904375;28;99498;-71
2023/01/28 02:51:49;;;;;;;9.35;8.57;;;;;;;;;;4889683;28;99132;-72
2023/01/28 02:54:34;;;;;;;8.98;8.20;;;;;;;;;;4908021;28;98558;-72
2023/01/28 02:57:07;;;;;;;9.50;8.70;;;;;;;;;;4903293;28;101052;-72
2023/01/28 02:59:40;;;;;;;9.30;8.55;;;;;;;;;;4904877;28;98729;-72
2023/01/28 03:02:09;;;;;;;9.93;9.05;;;;;;;;;;4904827;28;101251;-71
2023/01/28 03:04:43;;;;;;;10.07;9.05;;;;;;;;;;4889435;28;98759;-72
2023/01/28 03:07:11;;;;;;;9.20;8.50;;;;;;;;;;4890019;28;98224;-72
2023/01/28 03:09:39;;;;;;;9.38;8.57;;;;;;;;;;4890564;28;98486;-72
2023/01/28 03:37:40;;;;;;;7.63;7.03;;;;;;;;;;4870151;28;98405;-72
2023/01/28 03:40:19;;;;;;;7.30;6.65;;;;;;;;;;4884648;28;100145;-72
2023/01/28 03:42:46;;;;;;;7.90;7.30;;;;;;;;;;4888183;28;101698;-73
2023/01/28 03:45:31;;;;;;;7.85;7.25;;;;;;;;;;4883655;28;99595;-73
2023/01/28 03:48:00;;;;;;;7.38;6.88;;;;;;;;;;4873986;28;99962;-73
2023/01/28 03:50:26;;;;;;;8.43;7.72;;;;;;;;;;4888206;28;98420;-73
2023/01/28 03:53:11;;;;;;;8.02;7.43;;;;;;;;;;4887934;28;100895;-73
2023/01/28 03:55:46;;;;;;;7.68;7.18;;;;;;;;;;4897212;28;101948;-72
2023/01/28 03:58:12;;;;;;;6.60;6.05;;;;;;;;;;4891182;28;98662;-73
2023/01/28 04:00:40;;;;;;;7.90;7.30;;;;;;;;;;4891053;28;100169;-72
2023/01/28 04:03:15;;;;;;;9.23;8.32;;;;;;;;;;4891479;28;102650;-72
2023/01/28 04:06:06;;;;;;;8.13;7.55;;;;;;;;;;4910888;28;98393;-72
2023/01/28 04:08:58;;;;;;;7.25;6.68;;;;;;;;;;4891299;28;101633;-73
2023/01/28 04:11:36;;;;;;;7.70;7.13;;;;;;;;;;4890939;28;98709;-72
2023/01/28 04:14:04;;;;;;;7.93;7.32;;;;;;;;;;4905736;28;100961;-72
2023/01/28 04:16:50;;;;;;;7.53;7.00;;;;;;;;;;4890776;28;100053;-73
2023/01/28 04:19:17;;;;;;;7.40;6.78;;;;;;;;;;4892912;28;98054;-72
2023/01/28 04:21:44;;;;;;;8.60;7.75;;;;;;;;;;4890567;28;101401;-72
2023/01/28 04:24:10;;;;;;;7.38;6.88;;;;;;;;;;4890547;28;101113;-72
2023/01/28 04:26:38;;;;;;;7.88;7.28;;;;;;;;;;4892651;28;98294;-72
2023/01/28 04:29:04;;;;;;;8.07;6.55;;;;;;;;;;4909574;28;100650;-72
2023/01/28 04:31:33;;;;;;;7.13;6.63;;;;;;;;;;4907216;28;98321;-72
2023/01/28 04:34:35;;;;;;;7.65;7.07;;;;;;;;;;4894479;28;98912;-72
2023/01/28 04:37:11;;;;;;;6.72;6.25;;;;;;;;;;4891503;28;98088;-73
2023/01/28 04:39:44;;;;;;;6.90;6.40;;;;;;;;;;4890772;28;98472;-73
2023/01/28 04:42:15;;;;;;;7.65;6.93;;;;;;;;;;4906296;28;99777;-72
2023/01/28 04:44:59;;;;;;;7.75;6.95;;;;;;;;;;4906596;28;100424;-73
2023/01/28 04:47:44;;;;;;;8.18;7.57;;;;;;;;;;4891261;28;98197;-72
2023/01/28 04:50:29;;;;;;;7.25;6.65;;;;;;;;;;4894263;28;98137;-73
2023/01/28 04:53:15;;;;;;;8.00;7.32;;;;;;;;;;4906662;28;98230;-72
2023/01/28 04:56:04;;;;;;;8.75;8.00;;;;;;;;;;4891342;28;98271;-72
2023/01/28 04:58:33;;;;;;;8.95;8.35;;;;;;;;;;4905604;28;100269;-74
2023/01/28 05:01:04;;;;;;;8.65;7.95;;;;;;;;;;4890477;28;98288;-72
2023/01/28 05:03:31;;;;;;;8.93;8.13;;;;;;;;;;4889013;28;101039;-74
2023/01/28 05:06:01;;;;;;;8.68;7.93;;;;;;;;;;4890177;28;102172;-73
2023/01/28 05:08:39;;;;;;;9.23;8.43;;;;;;;;;;4906594;28;98286;-73
2023/01/28 05:11:06;;;;;;;8.32;7.65;;;;;;;;;;4905777;28;100351;-73
2023/01/28 05:13:33;;;;;;;8.50;7.72;;;;;;;;;;4909383;28;101051;-73
2023/01/28 05:15:59;;;;;;;8.95;8.15;;;;;;;;;;4890218;28;100740;-74
2023/01/28 05:18:26;;;;;;;9.25;8.45;;;;;;;;;;4889537;28;99897;-73
2023/01/28 05:21:04;;;;;;;7.18;6.68;;;;;;;;;;4906002;28;98388;-72
2023/01/28 05:23:32;;;;;;;9.02;8.23;;;;;;;;;;4905948;28;100357;-72
2023/01/28 05:25:59;;;;;;;7.80;7.05;;;;;;;;;;4891154;28;98926;-73
2023/01/28 05:28:26;;;;;;;8.30;7.60;;;;;;;;;;4889502;28;98356;-72
2023/01/28 05:30:52;;;;;;;8.88;8.18;;;;;;;;;;4889649;28;100999;-74
2023/01/28 05:33:19;;;;;;;8.20;7.50;;;;;;;;;;4906235;28;101829;-75
2023/01/28 05:35:45;;;;;;;6.78;6.28;;;;;;;;;;4895704;28;98707;-72
2023/01/28 05:38:12;;;;;;;8.45;7.75;;;;;;;;;;4906293;28;101540;-73
2023/01/28 05:40:40;;;;;;;8.90;8.10;;;;;;;;;;4906269;28;98428;-72
2023/01/28 05:43:07;;;;;;;8.60;7.90;;;;;;;;;;4906904;28;101579;-73
2023/01/28 05:45:37;;;;;;;9.05;8.25;;;;;;;;;;4912612;28;101016;-73
2023/01/28 05:48:08;;;;;;;8.55;7.85;;;;;;;;;;4925164;28;98316;-72
2023/01/28 05:51:04;;;;;;;;;;;;;;;;;;4925351;28;100965;-73
2023/01/28 05:53:33;;;;;;;8.52;7.82;;;;;;;;;;4923831;28;100378;-73
2023/01/28 05:55:59;;;;;;;9.00;8.10;;;;;;;;;;4889560;28;98926;-73
2023/01/28 05:58:30;;;;;;;9.45;8.63;;;;;;;;;;4908553;28;99419;-73
2023/01/28 06:01:00;;;;;;;9.43;8.63;;;;;;;;;;4888900;28;99069;-74
2023/01/28 06:03:35;;;;;;;8.45;7.65;;;;;;;;;;4889625;28;100392;-72
2023/01/28 06:06:01;;;;;;;10.82;9.10;;;;;;;;;;4886241;28;100060;-73
2023/01/28 06:08:28;;;;;;;8.65;7.95;;;;;;;;;;4886506;28;100597;-73
2023/01/28 06:10:54;;;;;;;9.35;8.52;;;;;;;;;;4884940;28;101116;-73
2023/01/28 06:13:22;;;;;;;9.10;8.30;;;;;;;;;;4884330;28;101402;-74
2023/01/28 06:16:09;;;;;;;8.82;8.02;;;;;;;;;;4888441;28;98293;-73
2023/01/28 06:18:53;;;;;;;9.38;8.63;;;;;;;;;;4886464;28;98319;-73
2023/01/28 06:21:20;;;;;;;9.20;8.40;;;;;;;;;;4892756;28;98921;-72
2023/01/28 06:23:46;;;;;;;8.73;7.93;;;;;;;;;;4888467;28;101240;-71
2023/01/28 06:26:13;;;;;;;8.60;7.90;;;;;;;;;;4880764;28;100448;-73
2023/01/28 06:28:42;;;;;;;9.10;8.20;;;;;;;;;;4904444;28;98331;-73
2023/01/28 06:31:08;;;;;;;7.72;7.03;;;;;;;;;;4888660;28;98749;-76
2023/01/28 06:33:35;;;;;;;8.93;8.15;;;;;;;;;;4887676;28;100002;-73
2023/01/28 06:36:05;;;;;;;9.20;8.40;;;;;;;;;;4888838;28;98408;-72
2023/01/28 06:38:33;;;;;;;9.30;8.50;;;;;;;;;;4890023;28;99544;-74
2023/01/28 06:41:01;;;;;;;9.32;8.52;;;;;;;;;;4888994;28;100327;-73
2023/01/28 06:43:29;;;;;;;8.93;8.02;;;;;;;;;;4892451;28;98251;-74
2023/01/28 06:45:56;;;;;;;8.65;7.95;;;;;;;;;;4883880;28;99975;-72
2023/01/28 06:48:22;;;;;;;8.10;7.40;;;;;;;;;;4889326;28;98256;-72
2023/01/28 06:50:49;;;;;;;9.98;9.07;;;;;;;;;;4889901;28;99537;-72
2023/01/28 06:53:16;;;;;;;10.18;9.10;;;;;;;;;;4889307;28;101504;-72
2023/01/28 06:55:43;;;;;;;10.32;9.35;;;;;;;;;;4888656;28;98368;-74
2023/01/28 06:58:09;;;;;;;9.63;8.82;;;;;;;;;;4889158;28;99643;-74
2023/01/28 07:00:36;;;;;;;10.95;9.85;;;;;;;;;;4889952;28;99918;-73
2023/01/28 07:03:03;;;;;;;10.25;9.25;;;;;;;;;;4892165;28;98188;-73
2023/01/28 07:05:30;;;;;;;10.57;9.50;;;;;;;;;;4889465;28;99821;-72
2023/01/28 07:07:56;;;;;;;10.77;9.55;;;;;;;;;;4888507;28;98392;-72
2023/01/28 07:10:22;;;;;;;10.10;9.27;;;;;;;;;;4888661;28;99461;-72
2023/01/28 07:12:49;;;;;;;9.55;8.70;;;;;;;;;;4889450;28;99706;-73
2023/01/28 07:15:16;;;;;;;10.65;9.65;;;;;;;;;;4889439;28;98477;-73
2023/01/28 07:17:43;;;;;;;11.43;10.43;;;;;;;;;;4888617;28;99361;-74
2023/01/28 07:20:11;;;;;;;9.30;8.40;;;;;;;;;;4888751;28;100168;-74
2023/01/28 07:22:39;;;;;;;10.32;9.32;;;;;;;;;;4888891;28;98390;-74
2023/01/28 07:25:06;;;;;;;10.05;9.05;;;;;;;;;;4891703;28;99338;-73
2023/01/28 07:27:33;;;;;;;9.90;9.05;;;;;;;;;;4889478;28;98316;-73
2023/01/28 07:29:59;;;;;;;10.98;9.98;;;;;;;;;;4889162;28;98600;-72
2023/01/28 07:32:26;;;;;;;11.45;10.45;;;;;;;;;;4887524;28;100212;-73
2023/01/28 07:34:52;;;;;;;11.00;10.10;;;;;;;;;;4888826;28;98358;-73
2023/01/28 07:37:19;;;;;;;11.07;10.10;;;;;;;;;;4888385;28;99508;-74
2023/01/28 07:39:45;;;;;;;10.52;9.43;;;;;;;;;;4889076;28;99130;-73
2023/01/28 07:42:12;;;;;;;11.90;10.80;;;;;;;;;;4889002;28;99117;-73
2023/01/28 07:44:44;;;;;;;;;;;;;;;;;;4903693;28;99453;-73
2023/01/28 07:47:11;;;;;;;11.57;10.35;;;;;;;;;;4891009;28;129569;-73
2023/01/28 07:49:38;;;;;;;11.38;10.38;;;;;;;;;;4889651;28;98434;-73
2023/01/28 07:52:05;;;;;;;11.88;10.68;;;;;;;;;;4888392;28;99647;-73
2023/01/28 07:54:32;;;;;;;11.13;10.00;;;;;;;;;;4888893;28;98280;-73
2023/01/28 07:56:58;;;;;;;12.85;11.55;;;;;;;;;;4888189;28;99820;-73
2023/01/28 07:59:24;;;;;;;10.15;8.80;;;;;;;;;;4888445;28;100120;-73
2023/01/28 08:01:52;;;;;;;11.73;10.63;;;;;;;;;;4888233;28;98308;-73
2023/01/28 08:04:20;;;;;;;13.65;11.57;;;;;;;;;;4889062;28;99736;-73
2023/01/28 08:06:47;;;;;;;11.65;10.52;;;;;;;;;;4888370;28;100260;-74
2023/01/28 08:09:13;;;;;;;11.98;9.68;;;;;;;;;;4890054;28;100046;-73
2023/01/28 08:11:40;;;;;;;10.57;9.32;;;;;;;;;;4889107;28;100288;-74
2023/01/28 08:14:06;;;;;;;10.60;9.50;;;;;;;;;;4888428;28;98311;-74
2023/01/28 08:16:33;;;;;;;11.27;10.27;;;;;;;;;;4888712;28;99574;-74
2023/01/28 08:18:59;;;;;;;10.75;9.85;;;;;;;;;;4888287;28;100028;-73
2023/01/28 08:21:25;;;;;;;10.63;9.68;;;;;;;;;;4887547;28;98591;-74
2023/01/28 08:23:52;;;;;;;15.18;11.00;;;;;;;;;;4888734;28;99560;-74
2023/01/28 08:26:18;;;;;;;11.48;10.35;;;;;;;;;;4888830;28;99226;-74
2023/01/28 08:28:45;;;;;;;11.15;10.10;;;;;;;;;;4888143;28;98952;-73
2023/01/28 08:31:11;;;;;;;11.07;10.07;;;;;;;;;;4891304;28;99489;-73
2023/01/28 08:33:38;;;;;;;10.93;9.77;;;;;;;;;;4889526;28;98290;-74
2023/01/28 08:36:04;;;;;;;12.20;10.77;;;;;;;;;;4891324;28;98760;-74
2023/01/28 08:38:31;;;;;;;12.27;11.07;;;;;;;;;;4891920;28;99271;-74
2023/01/28 08:40:58;;;;;;;11.48;10.38;;;;;;;;;;4890981;28;98295;-74
2023/01/28 08:43:25;;;;;;;11.95;10.75;;;;;;;;;;4891714;28;99688;-74
2023/01/28 08:45:51;;;;;;;11.73;10.60;;;;;;;;;;4890932;28;100140;-74
2023/01/28 08:48:18;;;;;;;11.57;10.23;;;;;;;;;;4890647;28;98466;-74
2023/01/28 08:50:45;;;;;;;11.88;10.73;;;;;;;;;;4891540;28;99691;-74
2023/01/28 08:53:12;;;;;;;12.18;10.63;;;;;;;;;;4894159;28;99552;-74
2023/01/28 08:55:39;;;;;;;11.02;10.02;;;;;;;;;;4891355;28;98580;-74
2023/01/28 08:58:05;;;;;;;11.57;10.48;;;;;;;;;;4891187;28;98958;-75
2023/01/28 09:00:33;;;;;;;11.77;10.57;;;;;;;;;;4891446;28;98314;-75
2023/01/28 09:03:00;;;;;;;12.02;10.95;;;;;;;;;;4890739;28;99333;-73
2023/01/28 09:05:28;;;;;;;12.13;10.43;;;;;;;;;;4886748;28;100092;-73
2023/01/28 09:07:55;;;;;;;11.07;10.15;;;;;;;;;;4890534;28;98400;-74
2023/01/28 09:10:21;;;;;;;12.60;11.32;;;;;;;;;;4889845;28;99767;-75
2023/01/28 09:12:48;;;;;;;14.70;10.65;;;;;;;;;;4894075;28;100381;-74
2023/01/28 09:15:14;;;;;;;11.60;10.60;;;;;;;;;;4890939;28;98837;-75
2023/01/28 09:17:41;;;;;;;11.98;10.50;;;;;;;;;;4889989;28;98898;-74
2023/01/28 09:20:07;;;;;;;12.30;10.50;;;;;;;;;;4890792;28;99120;-73
2023/01/28 09:22:34;;;;;;;11.55;10.55;;;;;;;;;;4890996;28;99699;-74
2023/01/28 09:25:00;;;;;;;11.65;10.63;;;;;;;;;;4889821;28;99208;-73
2023/01/28 09:27:27;;;;;;;10.60;9.60;;;;;;;;;;4887008;28;99956;-73
2023/01/28 09:29:53;;;;;;;11.63;10.50;;;;;;;;;;4884730;28;99563;-74
2023/01/28 09:32:20;;;;;;;14.63;9.60;;;;;;;;;;4888685;28;100072;-73
2023/01/28 09:34:46;;;;;;;11.35;10.43;;;;;;;;;;4893245;28;99456;-73
2023/01/28 09:37:13;;;;;;;11.63;10.52;;;;;;;;;;4887209;28;100381;-73
2023/01/28 09:39:39;;;;;;;11.05;10.05;;;;;;;;;;4886910;28;98555;-74
2023/01/28 09:42:14;;;;;;;9.35;8.55;;;;;;;;;;4890070;28;99410;-74
2023/01/28 09:44:44;;;;;;;10.35;9.43;;;;;;;;;;4889490;28;100069;-74
2023/01/28 09:47:29;;;;;;;15.02;10.40;;;;;;;;;;4890340;28;98657;-74
2023/01/28 09:49:58;;;;;;;11.20;10.15;;;;;;;;;;4890185;28;98716;-75
2023/01/28 09:52:25;;;;;;;11.85;10.85;;;;;;;;;;4889660;28;100241;-74
2023/01/28 09:54:55;;;;;;;11.73;10.63;;;;;;;;;;4888934;28;98318;-74
2023/01/28 09:57:22;;;;;;;10.57;9.57;;;;;;;;;;4893075;28;98690;-74
2023/01/28 09:59:49;;;;;;;11.20;10.07;;;;;;;;;;4886421;28;98319;-75
2023/01/28 10:02:18;;;;;;;10.85;9.90;;;;;;;;;;4888289;28;99566;-75
2023/01/28 10:04:47;;;;;;;11.10;10.00;;;;;;;;;;4888512;28;100218;-74
2023/01/28 10:07:20;;;;;;;11.70;10.57;;;;;;;;;;4883368;28;100265;-75
2023/01/28 10:09:55;;;;;;;14.90;10.25;;;;;;;;;;4889161;28;99706;-75
2023/01/28 10:12:40;;;;;;;11.27;10.05;;;;;;;;;;4883833;28;99308;-75
2023/01/28 10:15:26;;;;;;;10.85;9.68;;;;;;;;;;4890472;28;98794;-75
2023/01/28 10:17:55;;;;;;;10.60;9.70;;;;;;;;;;4890826;28;99639;-75
2023/01/28 10:20:41;;;;;;;8.63;7.82;;;;;;;;;;4891572;28;100737;-74
2023/01/28 10:23:13;;;;;;;9.98;9.05;;;;;;;;;;4888999;28;100013;-74
2023/01/28 10:25:40;;;;;;;;;;;;;;;;;;4889343;28;100037;-73
2023/01/28 10:28:13;;;;;;;9.13;8.23;;;;;;;;;;4886438;28;127753;-76
2023/01/28 10:30:42;;;;;;;11.05;9.27;;;;;;;;;;4887412;28;99375;-74
2023/01/28 10:33:17;;;;;;;9.55;8.65;;;;;;;;;;4890834;28;100063;-75
2023/01/28 10:35:43;;;;;;;8.35;7.57;;;;;;;;;;4891090;28;98416;-74
2023/01/28 10:38:13;;;;;;;11.75;9.35;;;;;;;;;;4888321;28;99355;-74
2023/01/28 10:40:40;;;;;;;10.65;9.57;;;;;;;;;;4889476;28;99984;-74
2023/01/28 10:43:07;;;;;;;9.50;8.50;;;;;;;;;;4890905;28;98327;-75
2023/01/28 10:45:37;;;;;;;9.40;8.50;;;;;;;;;;4885947;28;101066;-74
2023/01/28 10:48:07;;;;;;;9.25;8.25;;;;;;;;;;4887906;28;98320;-74
2023/01/28 10:50:34;;;;;;;7.10;6.55;;;;;;;;;;4888889;28;99449;-74
2023/01/28 10:53:01;;;;;;;9.93;6.93;;;;;;;;;;4889492;28;100349;-74
2023/01/28 10:55:34;;;;;;;9.52;7.22;;;;;;;;;;4886291;28;101650;-73
2023/01/28 10:58:02;;;;;;;7.93;7.22;;;;;;;;;;4888283;28;99396;-73
2023/01/28 11:00:32;;;;;;;11.05;8.43;;;;;;;;;;4888885;28;99156;-74
2023/01/28 11:02:58;;;;;;;8.00;7.28;;;;;;;;;;4890491;28;98599;-75
2023/01/28 11:05:29;;;;;;;8.30;7.50;;;;;;;;;;4886595;28;101664;-75
2023/01/28 11:08:02;;;;;;;9.20;8.20;;;;;;;;;;4889870;28;98147;-75
2023/01/28 11:10:34;;;;;;;7.70;7.10;;;;;;;;;;4888095;28;99656;-74
2023/01/28 11:13:01;;;;;;;7.78;6.53;;;;;;;;;;4886102;28;101103;-75
2023/01/28 11:15:28;;;;;;;7.75;7.05;;;;;;;;;;4881341;28;99553;-75
2023/01/28 11:17:59;;;;;;;8.18;7.03;;;;;;;;;;4886102;28;99446;-75
2023/01/28 11:20:27;;;;;;;8.10;7.40;;;;;;;;;;4889048;28;100088;-75
2023/01/28 11:22:53;;;;;;;10.35;7.47;;;;;;;;;;4886265;28;98776;-75
2023/01/28 11:25:29;;;;;;;8.02;7.10;;;;;;;;;;4891136;28;99479;-74
2023/01/28 11:27:55;;;;;;;9.13;6.78;;;;;;;;;;4884097;28;99342;-73
2023/01/28 11:30:40;;;;;;;7.95;7.18;;;;;;;;;;4886941;28;99649;-74
2023/01/28 11:33:16;;;;;;;6.78;6.15;;;;;;;;;;4883655;28;100040;-74
2023/01/28 11:35:51;;;;;;;6.25;5.65;;;;;;;;;;4879482;28;98977;-73
2023/01/28 11:38:18;;;;;;;7.15;6.45;;;;;;;;;;4880130;28;99664;-74
2023/01/28 11:40:48;;;;;;;6.97;6.32;;;;;;;;;;4887758;28;99633;-74
2023/01/28 11:43:15;;;;;;;6.50;5.90;;;;;;;;;;4888060;28;98828;-74
2023/01/28 11:45:51;;;;;;;7.05;5.95;;;;;;;;;;4888775;28;99526;-73
2023/01/28 11:48:29;;;;;;;6.82;6.30;;;;;;;;;;4889988;28;98863;-74
2023/01/28 11:51:28;;;;;;;8.25;6.30;;;;;;;;;;4880554;28;99526;-75
2023/01/28 11:53:54;;;;;;;6.57;6.00;;;;;;;;;;4873941;28;100369;-74
2023/01/28 11:56:29;;;;;;;6.10;5.20;;;;;;;;;;4887031;28;100001;-74
2023/01/28 11:59:04;;;;;;;8.80;5.65;;;;;;;;;;4884955;28;99334;-74
2023/01/28 12:01:40;;;;;;;9.32;6.13;;;;;;;;;;4885323;28;100105;-74
2023/01/28 12:04:09;;;;;;;6.93;6.28;;;;;;;;;;4888313;28;99723;-74
2023/01/28 12:06:51;;;;;;;9.93;6.22;;;;;;;;;;4884579;28;100360;-74
2023/01/28 12:09:34;;;;;;;6.05;5.47;;;;;;;;;;4895084;28;100283;-74
2023/01/28 12:12:19;;;;;;;5.40;4.90;;;;;;;;;;4893749;28;98428;-74
2023/01/28 12:14:52;;;;;;;5.90;4.85;;;;;;;;;;4887506;28;99977;-74
2023/01/28 12:17:18;;;;;;;;;;;;;;;;;;4891871;28;98387;-73
2023/01/28 12:19:48;;;;;;;6.30;3.97;;;;;;;;;;4887456;28;129181;-73
2023/01/28 12:22:24;;;;;;;3.17;2.97;;;;;;;;;;4887159;28;101614;-74
2023/01/28 12:25:02;;;;;;;5.30;3.55;;;;;;;;;;4894706;28;98530;-74
2023/01/28 12:27:39;;;;;;;3.65;3.28;;;;;;;;;;4891490;28;98641;-74
2023/01/28 12:30:24;;;;;;;4.47;3.40;;;;;;;;;;4891975;28;99794;-73
2023/01/28 12:33:05;;;;;;;4.15;3.15;;;;;;;;;;4889310;28;98252;-73
2023/01/28 12:35:44;;;;;;;10.45;7.57;;;;;;;;;;4889762;28;99500;-74
2023/01/28 12:38:14;;;;;;;4.10;3.80;;;;;;;;;;4888521;28;98341;-75
2023/01/28 12:40:43;;;;;;;4.75;4.43;;;;;;;;;;4891077;28;99827;-74
2023/01/28 12:43:22;;;;;;;4.30;3.88;;;;;;;;;;4891568;28;99237;-74
2023/01/28 12:45:55;;;;;;;3.75;3.55;;;;;;;;;;4891882;28;99639;-75
2023/01/28 12:48:36;;;;;;;6.82;3.58;;;;;;;;;;4889789;28;100046;-74
2023/01/28 12:51:27;;;;;;;4.22;3.80;;;;;;;;;;4897269;28;99968;-75
2023/01/28 12:53:57;;;;;;;7.85;4.25;;;;;;;;;;4889245;28;100118;-76
2023/01/28 12:56:36;;;;;;;6.25;3.92;;;;;;;;;;4887796;28;99444;-74
2023/01/28 12:59:05;;;;;;;4.45;4.05;;;;;;;;;;4893097;28;100004;-74
2023/01/28 13:01:38;;;;;;;5.07;4.28;;;;;;;;;;4890525;28;99428;-74
2023/01/28 13:04:08;;;;;;;4.57;4.28;;;;;;;;;;4890882;28;99352;-74
2023/01/28 13:06:38;;;;;;;5.40;4.30;;;;;;;;;;4893913;28;98302;-73
2023/01/28 13:09:16;;;;;;;4.15;3.85;;;;;;;;;;4890447;28;99766;-73
2023/01/28 13:11:44;;;;;;;6.00;3.90;;;;;;;;;;4891484;28;99959;-74
2023/01/28 13:14:11;;;;;;;6.50;4.45;;;;;;;;;;4890838;28;98291;-75
2023/01/28 13:16:38;;;;;;;4.93;4.20;;;;;;;;;;4891450;28;99539;-75
2023/01/28 13:19:24;;;;;;;5.00;3.95;;;;;;;;;;4892361;28;100118;-74
2023/01/28 13:21:51;;;;;;;5.28;4.28;;;;;;;;;;4890959;28;99554;-74
2023/01/28 13:24:19;;;;;;;4.80;4.32;;;;;;;;;;4889999;28;100138;-75
2023/01/28 13:26:49;;;;;;;4.95;4.47;;;;;;;;;;4891962;28;98298;-75
2023/01/28 13:29:18;;;;;;;4.90;4.38;;;;;;;;;;4890317;28;98546;-75
2023/01/28 13:31:46;;;;;;;4.45;4.15;;;;;;;;;;4890939;28;100123;-75
2023/01/28 13:34:28;;;;;;;4.65;4.10;;;;;;;;;;4890738;28;98395;-75
2023/01/28 13:36:56;;;;;;;5.50;5.00;;;;;;;;;;4890367;28;99781;-75
2023/01/28 13:39:24;;;;;;;5.78;4.15;;;;;;;;;;4890560;28;99975;-75
2023/01/28 13:41:52;;;;;;;8.45;4.78;;;;;;;;;;4895436;28;98470;-75
2023/01/28 13:44:18;;;;;;;5.43;4.20;;;;;;;;;;4890685;28;99775;-76
2023/01/28 13:46:45;;;;;;;11.07;4.40;;;;;;;;;;4891482;28;99425;-75
2023/01/28 13:49:15;;;;;;;4.22;3.92;;;;;;;;;;4889780;28;99646;-75
2023/01/28 13:51:57;;;;;;;5.22;4.82;;;;;;;;;;4890564;28;99873;-74
2023/01/28 13:54:25;;;;;;;5.35;4.15;;;;;;;;;;4890626;28;98261;-75
2023/01/28 13:56:57;;;;;;;4.75;3.90;;;;;;;;;;4890908;28;98643;-76
2023/01/28 13:59:32;;;;;;;4.90;4.45;;;;;;;;;;4890142;28;100072;-75
2023/01/28 14:02:02;;;;;;;5.60;4.43;;;;;;;;;;4890556;28;98236;-74
2023/01/28 14:04:53;;;;;;;4.47;4.07;;;;;;;;;;4893038;28;99877;-75
2023/01/28 14:07:19;;;;;;;6.38;5.00;;;;;;;;;;4885309;28;99589;-75
2023/01/28 14:09:54;;;;;;;6.45;4.20;;;;;;;;;;4890330;28;98767;-75
2023/01/28 14:12:35;;;;;;;5.30;4.32;;;;;;;;;;4889810;28;100181;-75
2023/01/28 14:15:08;;;;;;;3.40;3.10;;;;;;;;;;4889575;28;98291;-76
2023/01/28 14:17:49;;;;;;;4.20;3.50;;;;;;;;;;4889886;28;99424;-75
2023/01/28 14:20:36;;;;;;;5.07;4.03;;;;;;;;;;4889482;28;100092;-74
2023/01/28 14:23:04;;;;;;;4.03;3.72;;;;;;;;;;4889466;28;98201;-77
2023/01/28 14:25:40;;;;;;;3.92;3.63;;;;;;;;;;4889400;28;99504;-75
2023/01/28 14:28:08;;;;;;;6.10;4.03;;;;;;;;;;4890338;28;99995;-75
2023/01/28 14:30:44;;;;;;;3.83;3.53;;;;;;;;;;4884738;28;98621;-73
2023/01/28 14:33:11;;;;;;;3.42;3.17;;;;;;;;;;4886268;28;100263;-74
2023/01/28 14:35:38;;;;;;;3.88;2.90;;;;;;;;;;4888880;28;98120;-74
2023/01/28 14:38:06;;;;;;;6.63;3.17;;;;;;;;;;4886258;28;99741;-74
2023/01/28 14:40:34;;;;;;;4.18;2.70;;;;;;;;;;4887892;28;99180;-74
2023/01/28 14:43:02;;;;;;;2.60;2.40;;;;;;;;;;4888701;28;98480;-73
2023/01/28 14:45:35;;;;;;;6.30;2.95;;;;;;;;;;4881769;28;99970;-73
2023/01/28 14:48:01;;;;;;;4.55;2.88;;;;;;;;;;4886985;28;100139;-74
2023/01/28 14:50:46;;;;;;;3.63;3.33;;;;;;;;;;4891895;28;98411;-73
2023/01/28 14:53:22;;;;;;;3.97;3.58;;;;;;;;;;4888998;28;100269;-74
2023/01/28 14:55:54;;;;;;;6.95;3.10;;;;;;;;;;4883537;28;98377;-74
2023/01/28 14:58:26;;;;;;;3.53;2.97;;;;;;;;;;4889018;28;100077;-74
2023/01/28 15:00:58;;;;;;;4.47;2.90;;;;;;;;;;4885714;28;99782;-75
2023/01/28 15:03:25;;;;;;;5.65;3.08;;;;;;;;;;4889425;28;98264;-75
2023/01/28 15:06:05;;;;;;;6.75;3.40;;;;;;;;;;4888671;28;99545;-76
2023/01/28 15:08:34;;;;;;;3.15;2.85;;;;;;;;;;4883919;28;99399;-74
2023/01/28 15:11:01;;;;;;;3.75;3.35;;;;;;;;;;4887914;28;98683;-73
2023/01/28 15:13:29;;;;;;;7.15;3.33;;;;;;;;;;4890561;28;99585;-74
2023/01/28 15:15:59;;;;;;;6.15;3.05;;;;;;;;;;4884549;28;100912;-74
2023/01/28 15:18:34;;;;;;;5.28;2.85;;;;;;;;;;4888225;28;99467;-75
2023/01/28 15:21:01;;;;;;;7.38;3.15;;;;;;;;;;4887793;28;99797;-73
2023/01/28 15:23:34;;;;;;;3.00;2.67;;;;;;;;;;4888496;28;98556;-73